Time;durP1;ratioP1;P1;durP2;ratioP2;P2;SDS_P1;SDS_P2;PMS_P1;PMS_P2;Temp;Humidity;BMP_temperature;BMP_pressure;BME280_temperature;BME280_humidity;BME280_pressure;Samples;Min_cycle;Max_cycle;Signal;HPM_P1;HPM_P2
2021/07/08 00:01:04;;;;;;;21.20;14.17;;;;;;;26.39;48.03;95407.84;5088652;28;20203;-71
2021/07/08 00:03:31;;;;;;;19.57;13.70;;;;;;;26.03;48.46;95410.63;5089178;28;20753;-70
2021/07/08 00:05:58;;;;;;;24.13;17.80;;;;;;;26.22;48.81;95424.28;5087621;28;20640;-70
2021/07/08 00:08:25;;;;;;;27.27;18.83;;;;;;;26.29;48.46;95416.41;5089257;28;20228;-68
2021/07/08 00:10:55;;;;;;;30.00;21.57;;;;;;;26.30;48.27;95415.28;5091127;28;20856;-68
2021/07/08 00:13:24;;;;;;;27.33;18.07;;;;;;;26.39;47.84;95417.81;5089642;28;20199;-70
2021/07/08 00:15:52;;;;;;;23.77;17.03;;;;;;;26.36;47.87;95416.59;5088342;28;20234;-70
2021/07/08 00:18:21;;;;;;;32.47;19.80;;;;;;;26.27;48.16;95418.66;5089345;28;20190;-69
2021/07/08 00:20:48;;;;;;;23.40;16.30;;;;;;;26.21;48.49;95414.63;5089244;28;20211;-70
2021/07/08 00:23:16;;;;;;;20.13;13.77;;;;;;;26.23;48.15;95415.09;5089531;28;20581;-68
2021/07/08 00:25:44;;;;;;;17.30;13.83;;;;;;;26.06;48.73;95414.59;5088710;28;20195;-69
2021/07/08 00:28:15;;;;;;;17.40;14.20;;;;;;;26.09;48.39;95414.69;5089493;28;20206;-68
2021/07/08 00:30:47;;;;;;;19.50;14.10;;;;;;;26.12;48.72;95419.38;5088579;28;20199;-68
2021/07/08 00:33:15;;;;;;;20.83;16.63;;;;;;;25.95;48.49;95427.66;5090210;28;20203;-67
2021/07/08 00:35:42;;;;;;;27.43;19.00;;;;;;;25.90;49.15;95433.28;5093418;28;20190;-69
2021/07/08 00:38:09;;;;;;;31.60;21.13;;;;;;;25.81;49.07;95419.19;5073263;28;20735;-67
2021/07/08 00:40:37;;;;;;;14.23;10.20;;;;;;;25.76;49.17;95438.22;5087006;28;20662;-69
2021/07/08 00:43:04;;;;;;;10.70;8.00;;;;;;;25.37;50.23;95420.88;5082910;28;20203;-69
2021/07/08 00:45:32;;;;;;;9.50;8.50;;;;;;;25.34;50.39;95431.50;5078293;28;20198;-70
2021/07/08 00:47:59;;;;;;;8.80;7.90;;;;;;;25.22;50.61;95423.47;5093534;28;20211;-69
2021/07/08 00:50:35;;;;;;;11.10;8.47;;;;;;;24.94;51.03;95428.69;5092541;28;20579;-69
2021/07/08 00:53:03;;;;;;;9.07;8.07;;;;;;;25.14;50.75;95430.50;5085845;28;20657;-67
2021/07/08 00:55:31;;;;;;;11.73;8.17;;;;;;;25.36;49.99;95435.44;5072627;28;20253;-69
2021/07/08 00:57:58;;;;;;;9.97;8.50;;;;;;;25.38;49.34;95432.44;5079472;28;20191;-68
2021/07/08 01:00:33;;;;;;;10.50;9.30;;;;;;;25.52;48.64;95427.50;5092639;28;20211;-69
2021/07/08 01:03:00;;;;;;;11.73;9.23;;;;;;;24.87;50.62;95434.56;5078975;28;20190;-69
2021/07/08 01:05:32;;;;;;;12.87;8.90;;;;;;;25.45;48.97;95427.28;5080496;28;20245;-69
2021/07/08 01:08:00;;;;;;;11.73;9.40;;;;;;;25.35;48.94;95425.81;5076748;28;20248;-68
2021/07/08 01:10:28;;;;;;;9.70;8.70;;;;;;;25.44;49.21;95433.75;5081312;28;20206;-68
2021/07/08 01:12:55;;;;;;;12.37;9.20;;;;;;;25.58;48.83;95420.81;5086647;28;20246;-71
2021/07/08 01:15:22;;;;;;;10.37;8.57;;;;;;;25.25;49.43;95428.16;5072746;28;20544;-69
2021/07/08 01:17:50;;;;;;;10.40;9.30;;;;;;;25.39;49.31;95423.25;5088651;28;20210;-69
2021/07/08 01:20:20;;;;;;;10.23;8.37;;;;;;;25.49;49.52;95422.81;5092311;28;20203;-70
2021/07/08 01:22:57;;;;;;;9.80;8.77;;;;;;;25.48;49.50;95416.66;5092986;28;20326;-68
2021/07/08 01:25:27;;;;;;;12.47;9.87;;;;;;;25.52;49.32;95428.28;5092645;28;20616;-69
2021/07/08 01:27:56;;;;;;;23.67;16.87;;;;;;;25.54;49.56;95425.28;5092239;28;20238;-70
2021/07/08 01:30:23;;;;;;;28.53;19.93;;;;;;;25.34;50.46;95426.13;5092518;28;20325;-71
2021/07/08 01:32:51;;;;;;;49.00;34.87;;;;;;;25.36;49.87;95427.38;5092126;28;20219;-70
2021/07/08 01:35:19;;;;;;;52.07;39.60;;;;;;;24.84;51.73;95429.09;5094312;28;20221;-68
2021/07/08 01:37:46;;;;;;;32.60;24.53;;;;;;;25.10;51.13;95421.53;5092596;28;20257;-68
2021/07/08 01:40:15;;;;;;;21.80;16.43;;;;;;;25.23;50.61;95436.53;5077519;28;20200;-68
2021/07/08 01:42:43;;;;;;;28.37;20.30;;;;;;;24.99;51.28;95426.56;5078772;28;20191;-69
2021/07/08 01:45:14;;;;;;;33.77;22.90;;;;;;;25.03;51.16;95438.19;5091546;28;20669;-68
2021/07/08 01:47:43;;;;;;;23.50;17.80;;;;;;;25.02;51.33;95436.63;5086473;28;20298;-68
2021/07/08 01:50:15;;;;;;;30.60;18.30;;;;;;;24.99;51.47;95441.88;5071600;28;20192;-67
2021/07/08 01:52:42;;;;;;;24.53;16.37;;;;;;;24.96;51.39;95442.53;5083700;28;20214;-67
2021/07/08 01:55:10;;;;;;;14.63;11.37;;;;;;;25.05;51.50;95435.94;5082711;28;20191;-68
2021/07/08 01:57:42;;;;;;;16.63;12.57;;;;;;;24.93;51.69;95435.94;5074345;28;20261;-67
2021/07/08 02:00:13;;;;;;;16.30;12.40;;;;;;;25.30;51.08;95435.97;5081552;28;20199;-68
2021/07/08 02:02:41;;;;;;;17.67;10.93;;;;;;;25.23;51.48;95435.75;5074954;28;20638;-69
2021/07/08 02:05:08;;;;;;;13.70;11.17;;;;;;;25.13;51.54;95438.88;5071320;28;20638;-70
2021/07/08 02:07:36;;;;;;;17.03;11.47;;;;;;;25.03;51.50;95437.41;5085544;28;20203;-70
2021/07/08 02:10:09;;;;;;;13.40;10.50;;;;;;;25.04;52.16;95437.06;5078310;28;20221;-70
2021/07/08 02:12:38;;;;;;;18.37;11.27;;;;;;;24.95;53.03;95436.38;5091138;28;20240;-68
2021/07/08 02:15:06;;;;;;;14.17;10.23;;;;;;;24.96;52.58;95437.19;5076721;28;20199;-69
2021/07/08 02:17:33;;;;;;;18.60;12.67;;;;;;;25.00;52.16;95433.47;5077945;28;20199;-68
2021/07/08 02:20:01;;;;;;;20.27;13.70;;;;;;;24.84;52.79;95439.81;5090821;28;20255;-69
2021/07/08 02:22:27;;;;;;;17.20;13.90;;;;;;;24.64;53.59;95448.66;5091351;28;20665;-69
2021/07/08 02:24:54;;;;;;;20.20;14.47;;;;;;;24.65;53.01;95432.25;5090778;28;20199;-68
2021/07/08 02:27:21;;;;;;;16.00;12.70;;;;;;;25.07;52.08;95444.44;5091011;28;20195;-69
2021/07/08 02:29:48;;;;;;;15.67;11.77;;;;;;;24.96;52.07;95443.31;5090990;28;20570;-68
2021/07/08 02:32:15;;;;;;;16.67;12.97;;;;;;;24.83;52.44;95439.06;5089755;28;20234;-67
2021/07/08 02:34:42;;;;;;;18.17;12.20;;;;;;;24.82;52.77;95442.84;5090613;28;20187;-67
2021/07/08 02:37:08;;;;;;;14.40;11.13;;;;;;;24.85;52.19;95450.19;5088009;28;20203;-70
2021/07/08 02:39:36;;;;;;;13.63;10.47;;;;;;;24.44;52.77;95436.88;5079618;28;20199;-68
2021/07/08 02:42:04;;;;;;;12.43;10.90;;;;;;;24.57;52.63;95435.81;5090978;28;20286;-68
2021/07/08 02:44:31;;;;;;;14.33;10.10;;;;;;;24.52;52.19;95448.63;5083276;28;20191;-69
2021/07/08 02:46:59;;;;;;;12.50;10.60;;;;;;;24.56;52.15;95444.94;5070915;28;20188;-70
2021/07/08 02:49:27;;;;;;;15.10;10.57;;;;;;;24.63;51.79;95453.25;5075761;28;20211;-68
2021/07/08 02:51:54;;;;;;;12.27;10.57;;;;;;;24.71;52.22;95454.28;5090832;28;20195;-70
2021/07/08 02:54:21;;;;;;;21.73;15.53;;;;;;;24.65;52.83;95451.00;5090310;28;20193;-70
2021/07/08 02:56:48;;;;;;;25.70;13.97;;;;;;;24.66;52.43;95455.28;5090269;28;20202;-69
2021/07/08 02:59:14;;;;;;;22.47;16.87;;;;;;;24.68;52.63;95458.41;5090918;28;20210;-68
2021/07/08 03:01:41;;;;;;;21.67;14.97;;;;;;;24.62;52.37;95458.94;5083388;28;20204;-68
2021/07/08 03:04:08;;;;;;;28.67;18.27;;;;;;;24.52;52.95;95460.16;5090491;28;20194;-67
2021/07/08 03:06:36;;;;;;;37.93;25.97;;;;;;;24.43;53.01;95456.75;5080709;28;20191;-70
2021/07/08 03:09:04;;;;;;;35.13;24.23;;;;;;;24.65;52.62;95448.31;5090500;28;20226;-67
2021/07/08 03:11:32;;;;;;;35.83;22.07;;;;;;;24.57;53.02;95461.81;5076612;28;20187;-69
2021/07/08 03:13:58;;;;;;;33.27;21.87;;;;;;;24.52;53.13;95465.50;5091210;28;20198;-70
2021/07/08 03:16:25;;;;;;;30.23;21.90;;;;;;;24.53;52.97;95458.22;5090278;28;20201;-70
2021/07/08 03:18:52;;;;;;;32.33;22.20;;;;;;;24.64;53.02;95473.56;5081104;28;20194;-68
2021/07/08 03:21:19;;;;;;;35.27;27.23;;;;;;;24.57;53.09;95461.81;5088480;28;20209;-69
2021/07/08 03:23:46;;;;;;;33.10;27.23;;;;;;;24.54;53.80;95468.59;5090778;28;20187;-71
2021/07/08 03:26:13;;;;;;;41.87;32.70;;;;;;;24.47;53.61;95478.31;5090005;28;20577;-69
2021/07/08 03:28:40;;;;;;;55.93;39.57;;;;;;;24.61;53.61;95468.88;5090323;28;20214;-70
2021/07/08 03:31:07;;;;;;;81.20;56.50;;;;;;;24.50;53.63;95457.00;5089512;28;20239;-71
2021/07/08 03:33:34;;;;;;;72.27;51.50;;;;;;;24.59;53.61;95471.09;5090603;28;20555;-68
2021/07/08 03:36:01;;;;;;;47.13;35.03;;;;;;;24.51;54.19;95474.63;5089894;28;20206;-69
2021/07/08 03:38:28;;;;;;;47.33;29.97;;;;;;;24.50;54.62;95478.44;5077104;28;20271;-68
2021/07/08 03:40:55;;;;;;;26.00;21.00;;;;;;;24.38;54.35;95474.94;5083998;28;20195;-68
2021/07/08 03:43:22;;;;;;;49.37;32.47;;;;;;;24.53;54.33;95485.03;5082519;28;20191;-69
2021/07/08 03:45:49;;;;;;;45.80;30.27;;;;;;;24.56;54.50;95485.16;5078837;28;20202;-70
2021/07/08 03:48:16;;;;;;;65.97;36.37;;;;;;;24.68;54.09;95485.22;5064102;28;20564;-70
2021/07/08 03:50:43;;;;;;;49.07;33.53;;;;;;;24.72;53.66;95480.78;5072822;28;20194;-69
2021/07/08 03:53:10;;;;;;;45.33;29.10;;;;;;;24.83;53.68;95495.34;5086409;28;20687;-67
2021/07/08 03:55:37;;;;;;;35.53;24.87;;;;;;;24.82;53.76;95501.81;5089419;28;20225;-69
2021/07/08 03:58:04;;;;;;;26.83;18.13;;;;;;;24.66;53.60;95482.06;5089631;28;20217;-70
2021/07/08 04:00:34;;;;;;;26.93;17.57;;;;;;;24.72;54.01;95494.19;5085811;28;20188;-71
2021/07/08 04:03:04;;;;;;;23.77;17.37;;;;;;;24.74;53.81;95497.31;5089474;28;20230;-70
2021/07/08 04:05:32;;;;;;;46.23;29.93;;;;;;;24.76;53.80;95497.75;5088718;28;20661;-69
2021/07/08 04:07:59;;;;;;;41.37;26.43;;;;;;;24.79;54.51;95497.13;5087349;28;20187;-69
2021/07/08 04:10:26;;;;;;;33.13;20.67;;;;;;;24.80;54.14;95492.53;5083313;28;20184;-69
2021/07/08 04:12:58;;;;;;;23.97;17.43;;;;;;;24.76;54.35;95495.06;5078645;28;20201;-68
2021/07/08 04:15:27;;;;;;;21.90;15.63;;;;;;;24.80;54.17;95477.22;5079917;28;20290;-68
2021/07/08 04:17:54;;;;;;;23.60;14.00;;;;;;;24.74;53.67;95494.63;5081384;28;20221;-68
2021/07/08 04:20:21;;;;;;;17.17;13.93;;;;;;;24.86;53.51;95481.28;5089157;28;20256;-68
2021/07/08 04:22:49;;;;;;;20.83;13.80;;;;;;;24.25;54.75;95492.03;5088523;28;20292;-69
2021/07/08 04:25:18;;;;;;;18.93;13.73;;;;;;;24.45;53.73;95470.59;5090388;28;20278;-66
2021/07/08 04:27:45;;;;;;;24.53;13.30;;;;;;;24.60;54.07;95494.09;5089041;28;20688;-67
2021/07/08 04:30:15;;;;;;;22.83;14.07;;;;;;;24.60;54.32;95504.81;5088653;28;20266;-65
2021/07/08 04:32:42;;;;;;;20.03;13.87;;;;;;;24.88;53.62;95500.50;5089130;28;20223;-67
2021/07/08 04:35:10;;;;;;;16.93;13.70;;;;;;;24.98;54.01;95493.94;5088827;28;20202;-68
2021/07/08 04:37:42;;;;;;;15.10;12.63;;;;;;;25.29;53.78;95498.81;5089257;28;20199;-69
2021/07/08 04:40:14;;;;;;;21.00;13.37;;;;;;;25.34;53.90;95506.63;5088801;28;20328;-67
2021/07/08 04:42:41;;;;;;;78.57;56.80;;;;;;;25.40;53.48;95505.34;5069171;28;20283;-69
2021/07/08 04:45:09;;;;;;;57.40;51.43;;;;;;;25.47;53.26;95505.56;5068579;28;20191;-68
2021/07/08 04:47:39;;;;;;;17.60;13.60;;;;;;;25.46;52.82;95512.03;5068040;28;20298;-69
2021/07/08 04:50:09;;;;;;;20.50;13.43;;;;;;;25.46;52.22;95512.81;5077704;28;20777;-68
2021/07/08 04:52:37;;;;;;;13.73;12.27;;;;;;;25.51;52.05;95499.16;5084593;28;20314;-67
2021/07/08 04:55:06;;;;;;;14.87;11.70;;;;;;;25.56;51.42;95514.28;5078801;28;20187;-68
2021/07/08 04:57:33;;;;;;;14.40;11.00;;;;;;;25.57;52.16;95518.53;5088098;28;20681;-70
2021/07/08 05:00:01;;;;;;;17.13;11.27;;;;;;;25.46;52.26;95498.59;5089051;28;20191;-68
2021/07/08 05:02:27;;;;;;;15.60;12.30;;;;;;;25.47;52.72;95516.28;5088815;28;20655;-70
2021/07/08 05:04:54;;;;;;;20.53;12.80;;;;;;;25.70;52.39;95510.16;5088876;28;20184;-68
2021/07/08 05:07:21;;;;;;;30.97;23.50;;;;;;;25.79;52.29;95528.81;5088776;28;20730;-68
2021/07/08 05:09:48;;;;;;;19.40;13.97;;;;;;;25.57;53.04;95529.25;5088182;28;20280;-68
2021/07/08 05:12:15;;;;;;;30.30;14.27;;;;;;;25.70;52.18;95525.47;5088657;28;20201;-68
2021/07/08 05:14:41;;;;;;;23.93;15.43;;;;;;;25.53;51.90;95525.69;5088548;28;20221;-69
2021/07/08 05:17:08;;;;;;;142.17;126.57;;;;;;;25.60;52.53;95533.97;5087917;28;20595;-69
2021/07/08 05:19:35;;;;;;;80.07;71.90;;;;;;;25.51;53.15;95530.63;5090119;28;20191;-68
2021/07/08 05:22:02;;;;;;;27.07;18.53;;;;;;;25.80;52.16;95538.47;5092270;28;20226;-68
2021/07/08 05:24:29;;;;;;;19.70;13.37;;;;;;;25.84;51.35;95533.97;5077297;28;20217;-66
2021/07/08 05:26:56;;;;;;;20.17;15.40;;;;;;;25.96;50.95;95539.34;5088314;28;20183;-69
2021/07/08 05:29:23;;;;;;;21.30;13.20;;;;;;;25.84;51.69;95545.50;5085270;28;20226;-69
2021/07/08 05:31:51;;;;;;;15.10;13.27;;;;;;;25.33;53.40;95540.72;5069916;28;20297;-68
2021/07/08 05:34:18;;;;;;;18.17;12.70;;;;;;;25.72;52.22;95544.72;5072565;28;20269;-70
2021/07/08 05:36:45;;;;;;;16.83;12.27;;;;;;;25.83;51.63;95552.00;5092361;28;20191;-67
2021/07/08 05:39:12;;;;;;;16.83;13.80;;;;;;;25.91;51.61;95547.63;5092173;28;20203;-69
2021/07/08 05:41:40;;;;;;;15.47;12.17;;;;;;;25.94;51.15;95536.22;5092712;28;20226;-67
2021/07/08 05:44:07;;;;;;;19.10;12.73;;;;;;;25.97;51.22;95554.31;5073933;28;20196;-67
2021/07/08 05:46:38;;;;;;;20.07;12.37;;;;;;;26.20;50.89;95554.69;5072400;28;20200;-66
2021/07/08 05:49:05;;;;;;;14.43;12.30;;;;;;;26.06;51.37;95560.38;5089295;28;20568;-69
2021/07/08 05:51:33;;;;;;;18.40;12.80;;;;;;;26.07;51.99;95556.59;5092478;28;20195;-67
2021/07/08 05:54:00;;;;;;;15.63;12.10;;;;;;;26.28;51.76;95557.25;5092149;28;20195;-69
2021/07/08 05:56:28;;;;;;;18.60;12.77;;;;;;;26.25;50.41;95552.56;5084455;28;20204;-68
2021/07/08 05:58:55;;;;;;;16.80;12.90;;;;;;;26.32;50.68;95558.13;5072554;28;20192;-68
2021/07/08 06:01:22;;;;;;;17.87;13.30;;;;;;;26.46;49.79;95560.47;5078329;28;20211;-67
2021/07/08 06:03:50;;;;;;;17.17;11.77;;;;;;;26.72;49.78;95556.28;5092355;28;20195;-67
2021/07/08 06:06:17;;;;;;;16.83;12.87;;;;;;;26.69;50.14;95562.34;5077424;28;20220;-68
2021/07/08 06:08:45;;;;;;;19.13;12.90;;;;;;;26.79;50.22;95561.06;5081772;28;20196;-68
2021/07/08 06:11:13;;;;;;;20.60;12.87;;;;;;;26.69;50.88;95562.34;5088615;28;20199;-68
2021/07/08 06:13:42;;;;;;;16.33;12.53;;;;;;;26.55;50.60;95561.13;5082701;28;20200;-69
2021/07/08 06:16:09;;;;;;;24.07;15.97;;;;;;;26.70;49.75;95555.81;5085438;28;20199;-69
2021/07/08 06:18:36;;;;;;;21.83;13.90;;;;;;;26.75;48.83;95523.31;5072394;28;20203;-67
2021/07/08 06:21:05;;;;;;;19.23;13.13;;;;;;;26.49;50.07;95555.19;5090957;28;20195;-68
2021/07/08 06:23:32;;;;;;;16.17;12.03;;;;;;;26.79;49.84;95550.28;5091962;28;20193;-68
2021/07/08 06:25:59;;;;;;;17.60;11.63;;;;;;;26.92;49.51;95555.31;5092351;28;20202;-69
2021/07/08 06:28:26;;;;;;;16.70;11.80;;;;;;;27.08;49.32;95557.25;5092838;28;20653;-67
2021/07/08 06:30:53;;;;;;;13.53;11.60;;;;;;;27.19;50.00;95558.31;5092001;28;20234;-68
2021/07/08 06:33:20;;;;;;;17.63;11.97;;;;;;;27.39;49.20;95565.44;5092803;28;20239;-68
2021/07/08 06:35:48;;;;;;;20.00;11.87;;;;;;;27.27;49.40;95558.16;5091310;28;20207;-71
2021/07/08 06:38:15;;;;;;;16.33;11.43;;;;;;;26.97;50.45;95557.75;5092024;28;20209;-70
2021/07/08 06:40:42;;;;;;;14.97;11.17;;;;;;;27.48;49.89;95557.97;5073312;28;20247;-66
2021/07/08 06:43:09;;;;;;;19.37;12.10;;;;;;;27.59;49.47;95553.63;5081187;28;20287;-66
2021/07/08 06:45:37;;;;;;;15.60;12.73;;;;;;;27.60;49.92;95555.19;5087795;28;20198;-66
2021/07/08 06:48:12;;;;;;;13.07;11.63;;;;;;;27.80;48.32;95554.13;5071130;28;20200;-67
2021/07/08 06:50:41;;;;;;;96.83;86.30;;;;;;;27.95;47.35;95548.00;5072461;28;20292;-67
2021/07/08 06:53:08;;;;;;;16.63;14.80;;;;;;;28.04;47.20;95556.69;5083236;28;20203;-68
2021/07/08 06:55:38;;;;;;;25.07;13.20;;;;;;;28.22;47.23;95557.06;5070742;28;20204;-68
2021/07/08 06:58:06;;;;;;;17.03;13.03;;;;;;;28.09;47.19;95548.31;5091090;28;20194;-69
2021/07/08 07:00:37;;;;;;;20.13;13.27;;;;;;;27.61;47.49;95564.84;5091570;28;20671;-67
2021/07/08 07:03:05;;;;;;;20.83;12.90;;;;;;;27.88;47.26;95558.59;5077253;28;20683;-67
2021/07/08 07:05:32;;;;;;;21.93;12.87;;;;;;;27.51;47.43;95549.97;5091518;28;20191;-67
2021/07/08 07:08:00;;;;;;;17.43;12.90;;;;;;;27.82;48.03;95549.97;5090595;28;20199;-67
2021/07/08 07:10:27;;;;;;;15.10;12.33;;;;;;;28.03;47.81;95548.94;5090443;28;20211;-67
2021/07/08 07:12:56;;;;;;;13.60;12.10;;;;;;;28.23;47.19;95550.56;5090849;28;20194;-68
2021/07/08 07:15:26;;;;;;;16.40;12.10;;;;;;;28.52;46.93;95547.34;5081494;28;20192;-67
2021/07/08 07:17:54;;;;;;;15.70;11.97;;;;;;;28.64;46.20;95552.63;5086809;28;20570;-67
2021/07/08 07:20:21;;;;;;;19.83;12.23;;;;;;;28.39;46.49;95540.53;5090847;28;20202;-67
2021/07/08 07:22:50;;;;;;;13.87;11.13;;;;;;;28.70;46.25;95546.59;5090709;28;20238;-67
2021/07/08 07:25:20;;;;;;;22.03;12.80;;;;;;;28.58;46.20;95538.66;5090615;28;20279;-67
2021/07/08 07:27:52;;;;;;;15.87;12.00;;;;;;;28.81;45.21;95541.44;5090316;28;20199;-67
2021/07/08 07:30:22;;;;;;;17.23;11.27;;;;;;;28.70;46.82;95546.59;5090316;28;20291;-66
2021/07/08 07:32:51;;;;;;;18.20;12.63;;;;;;;28.90;45.24;95534.66;5090461;28;20317;-68
2021/07/08 07:35:19;;;;;;;16.47;10.90;;;;;;;29.15;45.37;95539.78;5081822;28;20206;-68
2021/07/08 07:37:46;;;;;;;13.60;9.80;;;;;;;29.21;45.34;95538.38;5089970;28;20619;-68
2021/07/08 07:40:13;;;;;;;12.47;9.30;;;;;;;29.35;44.59;95541.31;5093953;28;20252;-67
2021/07/08 07:42:41;;;;;;;17.20;9.93;;;;;;;29.32;44.22;95542.03;5094614;28;20199;-67
2021/07/08 07:45:09;;;;;;;13.27;10.10;;;;;;;29.87;42.89;95544.19;5090580;28;20199;-67
2021/07/08 07:47:36;;;;;;;12.03;8.03;;;;;;;29.91;42.29;95542.28;5089896;28;20187;-67
2021/07/08 07:50:05;;;;;;;14.73;9.13;;;;;;;29.94;41.74;95538.88;5073518;28;20288;-67
2021/07/08 07:52:32;;;;;;;15.90;12.30;;;;;;;29.81;43.54;95543.72;5073317;28;20183;-67
2021/07/08 07:54:59;;;;;;;18.97;9.67;;;;;;;29.99;42.64;95537.78;5089809;28;20222;-66
2021/07/08 07:57:26;;;;;;;10.83;9.37;;;;;;;30.20;41.73;95541.56;5089906;28;20201;-67
2021/07/08 07:59:53;;;;;;;13.13;9.27;;;;;;;29.66;41.62;95538.38;5089904;28;20187;-66
2021/07/08 08:02:20;;;;;;;12.07;8.70;;;;;;;29.19;42.13;95541.44;5090083;28;20267;-67
2021/07/08 08:10:07;;;;;;;12.10;8.80;;;;;;;29.88;40.86;95534.91;5089131;28;20705;-67
2021/07/08 08:12:34;;;;;;;13.67;8.33;;;;;;;29.85;41.12;95531.00;5090206;28;20199;-67
2021/07/08 08:15:06;;;;;;;10.33;8.80;;;;;;;30.16;41.53;95524.56;5089618;28;20301;-66
2021/07/08 08:17:37;;;;;;;11.77;8.00;;;;;;;30.19;40.75;95529.22;5090267;28;20270;-68
2021/07/08 08:20:12;;;;;;;15.37;9.20;;;;;;;30.22;41.62;95533.88;5082360;28;20195;-67
2021/07/08 08:22:41;;;;;;;9.97;8.47;;;;;;;30.37;40.96;95524.06;5085258;28;20192;-67
2021/07/08 08:25:10;;;;;;;15.77;9.97;;;;;;;30.11;41.47;95527.53;5080841;28;20963;-67
2021/07/08 08:27:38;;;;;;;12.57;8.87;;;;;;;30.40;41.03;95521.41;5089944;28;20225;-67
2021/07/08 08:30:09;;;;;;;11.70;10.33;;;;;;;30.36;42.10;95519.81;5089171;28;20209;-68
2021/07/08 08:32:36;;;;;;;13.20;8.90;;;;;;;30.56;40.33;95527.44;5089394;28;20309;-68
2021/07/08 08:35:03;;;;;;;11.87;9.10;;;;;;;30.51;40.07;95533.16;5089434;28;20187;-68
2021/07/08 08:37:30;;;;;;;9.13;8.20;;;;;;;30.39;40.33;95530.69;5083993;28;20199;-67
2021/07/08 08:39:57;;;;;;;10.30;9.13;;;;;;;30.25;40.65;95527.78;5080768;28;20198;-66
2021/07/08 08:42:25;;;;;;;10.47;8.83;;;;;;;30.37;39.90;95524.88;5089882;28;20696;-66
2021/07/08 08:44:52;;;;;;;9.77;8.27;;;;;;;30.28;40.40;95529.75;5089090;28;20201;-66
2021/07/08 08:47:22;;;;;;;11.13;9.33;;;;;;;30.36;40.53;95522.53;5089000;28;20736;-68
2021/07/08 08:49:53;;;;;;;11.67;8.47;;;;;;;30.68;40.71;95524.50;5080021;28;20227;-67
2021/07/08 08:52:21;;;;;;;14.93;10.00;;;;;;;30.74;40.28;95512.22;5084884;28;20629;-66
2021/07/08 08:54:51;;;;;;;16.77;11.10;;;;;;;30.97;39.96;95525.63;5090580;28;20191;-67
2021/07/08 08:57:19;;;;;;;13.60;10.20;;;;;;;31.16;40.26;95519.28;5091310;28;20191;-67
2021/07/08 08:59:46;;;;;;;12.53;9.70;;;;;;;31.21;38.78;95535.19;5080020;28;20308;-66
2021/07/08 09:02:16;;;;;;;12.67;9.57;;;;;;;30.69;38.48;95522.59;5079976;28;20211;-66
2021/07/08 09:04:45;;;;;;;10.20;9.10;;;;;;;30.88;40.07;95532.50;5091906;28;20225;-67
2021/07/08 09:07:32;;;;;;;10.60;9.70;;;;;;;30.73;38.08;95524.16;5093083;28;20687;-68
2021/07/08 09:10:00;;;;;;;14.23;10.43;;;;;;;31.03;38.12;95517.97;5079258;28;20222;-67
2021/07/08 09:12:28;;;;;;;12.20;10.50;;;;;;;31.47;39.29;95518.84;5093189;28;20669;-67
2021/07/08 09:15:18;;;;;;;12.00;10.80;;;;;;;31.53;38.28;95522.78;5077927;28;20206;-67
2021/07/08 09:17:46;;;;;;;12.63;10.40;;;;;;;31.63;38.82;95528.28;5091453;28;20264;-66
2021/07/08 09:20:16;;;;;;;13.40;10.37;;;;;;;31.57;38.44;95531.69;5084870;28;20195;-67
2021/07/08 09:22:45;;;;;;;13.17;10.07;;;;;;;31.68;38.88;95527.13;5090932;28;20656;-67
2021/07/08 09:25:21;;;;;;;14.53;10.40;;;;;;;32.04;38.26;95523.59;5092205;28;20195;-67
2021/07/08 09:28:21;;;;;;;12.73;10.00;;;;;;;31.99;37.90;95518.50;5092120;28;20202;-68
2021/07/08 09:30:57;;;;;;;15.57;10.87;;;;;;;32.01;37.92;95524.34;5093396;28;20343;-67
2021/07/08 09:33:33;;;;;;;12.93;9.50;;;;;;;32.12;37.10;95525.19;5094431;28;20191;-66
2021/07/08 09:36:07;;;;;;;11.93;9.43;;;;;;;32.22;37.41;95524.50;5093096;28;20226;-66
2021/07/08 09:38:35;;;;;;;12.40;8.90;;;;;;;32.21;36.68;95527.59;5078188;28;20204;-68
2021/07/08 09:41:12;;;;;;;13.30;8.63;;;;;;;32.12;36.96;95500.78;5071769;28;20647;-67
2021/07/08 09:43:40;;;;;;;12.67;9.60;;;;;;;32.37;37.19;95520.69;5086544;28;20210;-68
2021/07/08 09:46:08;;;;;;;12.50;9.10;;;;;;;32.25;36.86;95517.53;5092378;28;20195;-66
2021/07/08 09:48:36;;;;;;;11.43;10.20;;;;;;;32.60;36.66;95507.69;5092324;28;20276;-68
2021/07/08 09:51:04;;;;;;;12.10;9.33;;;;;;;32.88;35.49;95506.25;5091900;28;20242;-66
2021/07/08 09:53:31;;;;;;;11.20;10.00;;;;;;;33.10;35.77;95502.47;5092481;28;20199;-68
2021/07/08 09:58:33;;;;;;;11.43;9.03;;;;;;;33.00;34.01;95509.41;5071492;28;20196;-66
2021/07/08 10:01:13;;;;;;;25.27;22.70;;;;;;;33.29;34.38;95504.81;5088606;28;20199;-67
2021/07/08 10:03:44;;;;;;;12.57;9.87;;;;;;;33.29;34.82;95510.25;5091860;28;20207;-67
2021/07/08 10:06:12;;;;;;;10.47;8.97;;;;;;;33.08;34.74;95502.84;5087480;28;20743;-67
2021/07/08 10:08:40;;;;;;;13.80;10.20;;;;;;;33.07;34.88;95524.94;5082595;28;20719;-67
2021/07/08 10:11:11;;;;;;;14.67;9.63;;;;;;;33.10;34.77;95521.47;5077606;28;20223;-68
2021/07/08 10:13:39;;;;;;;17.30;10.17;;;;;;;33.25;34.57;95515.69;5092564;28;20199;-67
2021/07/08 10:16:08;;;;;;;12.27;10.07;;;;;;;33.33;34.56;95516.47;5089959;28;20230;-67
2021/07/08 10:18:40;;;;;;;14.87;9.83;;;;;;;33.14;34.30;95514.13;5071635;28;20196;-67
2021/07/08 10:21:08;;;;;;;11.13;9.97;;;;;;;33.16;34.56;95509.84;5077021;28;20203;-67
2021/07/08 10:23:37;;;;;;;11.83;9.40;;;;;;;32.61;34.27;95519.28;5091356;28;20673;-68
2021/07/08 10:26:06;;;;;;;11.07;9.97;;;;;;;33.01;34.27;95515.63;5091088;28;20209;-68
2021/07/08 10:28:42;;;;;;;9.93;8.90;;;;;;;33.28;33.92;95525.78;5091979;28;20281;-67
2021/07/08 10:31:13;;;;;;;13.20;9.33;;;;;;;33.45;33.50;95519.63;5091122;28;20975;-67
2021/07/08 10:33:40;;;;;;;12.13;9.80;;;;;;;32.98;33.68;95521.81;5089975;28;20199;-68
2021/07/08 10:36:07;;;;;;;14.03;9.23;;;;;;;32.87;32.69;95515.53;5090604;28;20191;-69
2021/07/08 10:38:41;;;;;;;10.93;9.57;;;;;;;33.23;32.97;95512.56;5091096;28;20206;-67
2021/07/08 10:41:11;;;;;;;10.43;9.40;;;;;;;33.29;31.64;95511.03;5090853;28;20710;-67
2021/07/08 10:43:43;;;;;;;18.93;10.83;;;;;;;33.41;32.41;95509.91;5091084;28;20199;-68
2021/07/08 10:46:37;;;;;;;12.27;9.53;;;;;;;33.59;31.97;95513.44;5080758;28;20249;-67
2021/07/08 10:49:12;;;;;;;13.37;8.40;;;;;;;33.67;30.16;95506.81;5090655;28;20211;-67
2021/07/08 10:51:42;;;;;;;10.63;9.53;;;;;;;33.59;29.89;95513.44;5081524;28;20266;-67
2021/07/08 10:54:29;;;;;;;11.40;9.27;;;;;;;33.52;29.82;95511.47;5084139;28;20191;-66
2021/07/08 10:57:02;;;;;;;14.60;9.40;;;;;;;33.88;30.13;95509.56;5082934;28;20206;-66
2021/07/08 10:59:41;;;;;;;18.83;11.97;;;;;;;34.23;29.31;95514.22;5090337;28;20637;-67
2021/07/08 11:02:46;;;;;;;14.87;8.87;;;;;;;34.35;30.25;95508.34;5091385;28;20610;-68
2021/07/08 11:05:13;;;;;;;14.93;10.57;;;;;;;34.21;31.32;95511.09;5091023;28;20259;-68
2021/07/08 11:07:47;;;;;;;12.23;9.93;;;;;;;33.53;31.42;95514.97;5076714;28;20196;-67
2021/07/08 11:10:32;;;;;;;12.33;10.23;;;;;;;33.22;32.50;95507.53;5081704;28;20207;-71
2021/07/08 11:13:25;;;;;;;13.57;10.30;;;;;;;33.42;32.01;95514.16;5085280;28;20219;-67
2021/07/08 11:15:54;;;;;;;14.67;10.07;;;;;;;33.57;32.93;95515.75;5084855;28;20202;-67
2021/07/08 11:18:33;;;;;;;11.70;9.77;;;;;;;33.78;33.55;95507.59;5090991;28;20272;-68
2021/07/08 11:21:00;;;;;;;13.47;9.83;;;;;;;33.70;33.53;95516.94;5094459;28;20625;-68
2021/07/08 11:23:41;;;;;;;10.90;9.80;;;;;;;33.99;33.39;95510.34;5095821;28;20209;-68
2021/07/08 11:26:09;;;;;;;12.27;9.73;;;;;;;34.23;32.48;95504.13;5094451;28;20203;-67
2021/07/08 11:28:37;;;;;;;12.67;11.03;;;;;;;34.29;33.23;95502.53;5094975;28;20233;-70
2021/07/08 11:31:07;;;;;;;13.13;9.80;;;;;;;34.01;32.59;95497.16;5093819;28;20226;-68
2021/07/08 11:33:37;;;;;;;10.97;9.87;;;;;;;33.87;32.91;95488.19;5093533;28;20195;-67
2021/07/08 11:36:11;;;;;;;15.53;9.80;;;;;;;34.09;31.78;95495.94;5092594;28;20194;-67